Nearby METAR Reports

 

KPMD - Palmdale, California, USA
Distance from station: NNE 12mi, 19km
Updated: Sat, 07-Dec-2019 1:53am PST
Mist, Overcast
Mist, Overcast
 Wind from SSE
Wind: SSE 3 mph , 6 km/h
Temperature: 46°F , 8°C
Dew Point: 45°F , 7°C
Humidity: 93%
Barometer: 30.17 inHg , 1021.7 hPa
Summary: Mist
Clouds: Overcast
Visibility: 5 miles , 8 km
Cloud details: Mostly cloudy 3000 ft
Overcast 4000 ft
2019/12/07 09:53 KPMD 070953Z AUTO 16003KT 5SM BR BKN030 OVC040 08/07 A3017 RMK AO2 SLP213 T00780067
KWJF - Lancaster/Fox, California, USA
Distance from station: N 17mi, 27km
Updated: Sat, 07-Dec-2019 1:56am PST
Mist, Overcast
Mist, Overcast
 Wind from calm
Wind: Calm
Temperature: 48°F , 9°C
Dew Point: 48°F , 9°C
Humidity: 100%
Barometer: 30.17 inHg , 1021.7 hPa
Summary: Mist
Clouds: Overcast
Visibility: 6 miles , 10 km
Cloud details: Overcast 2700 ft
2019/12/07 09:56 KWJF 070956Z AUTO 00000KT 6SM BR OVC027 09/09 A3017 RMK AO2 RAE11 SLP219 P0000 T00940089
 
KMWS - Mount Wilson, California, USA
Distance from station: SSE 18mi, 30km
Updated: Wed, 13-May-2015 6:45am PDT
NOT Current

 Wind from S
Wind: S 3 mph , 6 km/h, Gust: 5 mph , 7 km/h
Temperature: 43°F , 6°C
Dew Point: -0°F , -18°C
Humidity: 16%
2015/05/13 13:45 KMWS 131345Z 18003G04KT 06/M18 RMK SNOW DEPTH 1.00
KWHP - La / Whiteman, California, USA
Distance from station: SW 21mi, 34km
Updated: Fri, 06-Dec-2019 8:00pm PST
NOT Current
Overcast
Overcast
 Wind from calm
Wind: Calm
Temperature: 57°F , 14°C
Dew Point: 55°F , 13°C
Humidity: 94%
Barometer: 30.19 inHg , 1022.4 hPa
Clouds: Overcast
Visibility: 10 miles , 16 km
Cloud details: Overcast 9000 ft
2019/12/07 04:00 KWHP 070400Z 00000KT 10SM OVC090 14/13 A3019
 
KBUR - Burbank, California, USA
Distance from station: SSW 22mi, 35km
Updated: Sat, 07-Dec-2019 1:53am PST
Light rain, Mist, Overcast
Light rain, Mist, Overcast
 Wind from calm
Wind: Calm
Temperature: 57°F , 14°C
Dew Point: 54°F , 12°C
Humidity: 88%
Barometer: 30.14 inHg , 1020.7 hPa
Summary: Light rain, Mist
Clouds: Overcast
Visibility: 6 miles , 10 km
Cloud details: Overcast 2500 ft
2019/12/07 09:53 KBUR 070953Z 00000KT 6SM -RA BR OVC025 14/12 A3014 RMK AO2 RAB40 SLP197 P0000 T01390122 $
KVNY - Van Nuys, California, USA
Distance from station: SW 25mi, 40km
Updated: Sat, 07-Dec-2019 2:18am PST
Light rain, Mist, Overcast
Light rain, Mist, Overcast
 Wind from calm
Wind: Calm
Temperature: 57°F , 14°C
Dew Point: 54°F , 12°C
Humidity: 88%
Barometer: 30.14 inHg , 1020.7 hPa
Summary: Light rain, Mist
Clouds: Overcast
Visibility: 3 miles , 5 km
Cloud details: Overcast 1200 ft
2019/12/07 10:18 KVNY 071018Z AUTO 00000KT 3SM -RA BR OVC012 14/12 A3014 RMK AO2 RAB02 P0000 T01390122
 
KEDW - Edwards Afb, California, USA
Distance from station: NNE 33mi, 53km
Updated: Sat, 07-Dec-2019 1:58am PST
Mist, Mostly cloudy
Mist, Mostly cloudy
 Wind from calm
Wind: Calm
Temperature: 45°F , 7°C
Dew Point: 45°F , 7°C
Humidity: 100%
Barometer: 30.15 inHg , 1021 hPa
Summary: Mist
Clouds: Mostly cloudy
Visibility: 5 miles , 8 km
Cloud details: Mostly cloudy 3500 ft
Mostly cloudy 4700 ft
2019/12/07 09:58 KEDW 070958Z AUTO 00000KT 5SM BR BKN035 BKN047 07/07 A3015 RMK AO2 SLP208 T00730072
KSMO - Santa Monica, California, USA
Distance from station: SSW 35mi, 57km
Updated: Sat, 07-Dec-2019 2:08am PST
Overcast
Overcast
 Wind from NNE
Wind: NNE 5 mph , 7 km/h
Temperature: 57°F , 14°C
Dew Point: 55°F , 13°C
Humidity: 94%
Barometer: 30.14 inHg , 1020.7 hPa
Clouds: Overcast
Visibility: 10 miles , 16 km
Cloud details: Partly cloudy 2300 ft
Overcast 3200 ft
2019/12/07 10:08 KSMO 071008Z AUTO 02004KT 10SM SCT023 OVC032 14/13 A3014 RMK AO2 RAE0957 P0000 T01440128
 
KLAX - Los Angeles, California, USA
Distance from station: SSW 39mi, 63km
Updated: Sat, 07-Dec-2019 1:53am PST
Overcast
Overcast
 Wind from NNE
Wind: NNE 8 mph , 13 km/h
Temperature: 61°F , 16°C
Dew Point: 55°F , 13°C
Humidity: 83%
Barometer: 30.13 inHg , 1020.3 hPa
Clouds: Overcast
Visibility: 10 miles , 16 km
Cloud details: Few Clouds 2500 ft
Mostly cloudy 3800 ft
Overcast 6500 ft
2019/12/07 09:53 KLAX 070953Z 02007KT 10SM FEW025 BKN038 OVC065 16/13 A3013 RMK AO2 RAB0859E38 SLP202 P0000 T01610128
KMHV - Mojave, California, USA
Distance from station: N 41mi, 66km
Updated: Sat, 07-Dec-2019 2:20am PST
Mist, Overcast
Mist, Overcast
 Wind from calm
Wind: Calm
Temperature: 48°F , 9°C
Dew Point: 48°F , 9°C
Humidity: 100%
Barometer: 30.16 inHg , 1021.3 hPa
Summary: Mist
Clouds: Overcast
Visibility: 6 miles , 10 km
Cloud details: Partly cloudy 1700 ft
Overcast 2400 ft
2019/12/07 10:20 KMHV 071020Z AUTO 00000KT 6SM BR SCT017 OVC024 09/09 A3016 RMK A01
 
KFUL - Fullerton, California, USA
Distance from station: SSE 44mi, 70km
Updated: Sat, 07-Dec-2019 1:53am PST
Overcast
Overcast
 Wind from E
Wind: E 5 mph , 7 km/h
Temperature: 61°F , 16°C
Dew Point: 54°F , 12°C
Humidity: 77%
Barometer: 30.13 inHg , 1020.3 hPa
Clouds: Overcast
Visibility: 10 miles , 16 km
Cloud details: Few Clouds 3500 ft
Overcast 4300 ft
2019/12/07 09:53 KFUL 070953Z AUTO 08004KT 10SM FEW035 OVC043 16/12 A3013 RMK AO2 RAB07E27 SLP200 P0000 T01610122
KONT - Ontario, California, USA
Distance from station: SE 45mi, 72km
Updated: Sat, 07-Dec-2019 2:32am PST
Light rain, Overcast
Light rain, Overcast
 Wind from NNW
Wind: NNW 6 mph , 9 km/h
Temperature: 57°F , 14°C
Dew Point: 54°F , 12°C
Humidity: 88%
Barometer: 30.16 inHg , 1021.3 hPa
Summary: Light rain
Clouds: Overcast
Visibility: 10 miles , 16 km
Cloud details: Mostly cloudy 3100 ft
Overcast 4200 ft
2019/12/07 10:32 KONT 071032Z 33005KT 10SM -RA BKN031 OVC042 14/12 A3016 RMK AO2 RAB30 P0001 T01440122
 
KLGB - Long Beach, California, USA
Distance from station: S 46mi, 74km
Updated: Sat, 07-Dec-2019 1:53am PST
Overcast
Overcast
 Wind from N
Wind: N 6 mph , 9 km/h
Temperature: 61°F , 16°C
Dew Point: 55°F , 13°C
Humidity: 83%
Barometer: 30.13 inHg , 1020.3 hPa
Clouds: Overcast
Visibility: 10 miles , 16 km
Cloud details: Overcast 4600 ft
2019/12/07 09:53 KLGB 070953Z AUTO 36005KT 10SM OVC046 16/13 A3013 RMK AO2 RAE01 SLP201 P0000 T01560128
KVCV - Victorville, California, USA
Distance from station: E 46mi, 74km
Updated: Fri, 06-Dec-2019 7:45pm PST
NOT Current
Overcast
Overcast
 Wind from calm
Wind: Calm
Barometer: 30.17 inHg , 1021.7 hPa
Clouds: Overcast
Visibility: 10 miles , 16 km
Cloud details: Overcast 11000 ft
2019/12/07 03:45 KVCV 070345Z 00000KT 10SM OVC110 A3017
 
KTSP - Tehachapi, California, USA
Distance from station: NNW 48mi, 77km
Updated: Sat, 07-Dec-2019 2:35am PST
Light rain, Overcast
Light rain, Overcast
 Wind from E
Wind: E 6 mph , 9 km/h
Temperature: 46°F , 8°C
Wind Chill: 43°F , 6°C
Dew Point: 46°F , 8°C
Humidity: 100%
Barometer: 30.16 inHg , 1021.3 hPa
Summary: Light rain
Clouds: Overcast
Visibility: 6 miles , 10 km
Cloud details: Partly cloudy 3500 ft
Overcast 5000 ft
2019/12/07 10:35 KTSP 071035Z AUTO 09005KT 6SM -RA SCT035 OVC050 08/08 A3016 RMK AO2